M I D A S
Marine Information and Data Acquisition System
Tripno 2222 of the Zeeleeuw from 2011-12-12 08:06:00 to 2011-12-12 15:59:30
Back to CruiseResearch ActivitiesStationsMapUnderway DataData graphs

EquipmentUnitsComment
TimeDGPSUTC
LatitudeDGPSDM.mWGS84
LongitudeDGPSDM.mWGS84
TemperatureSBE03/SBE38deg celciusITS90
ConductivitySBE21S/mITS90
SalinitySBE21 Practical Salinity Units
ChlorophylAChelsea fluorimeterg/lCalibrated in Aceton
Missing or incorrect values are displayed as -999
Sea surface data collected by the RV Zeeleeuw from 2011-12-12 08:09:47 to 2011-12-12 16:17:40
Time Latitude Longitude Temperature Conductivity Salinity ChlorophylA
2011-12-12 08:10:52 51°15.598 2°53.724 13.7393 0.105737 0.57244 -3.020363
2011-12-12 08:11:52 51°15.744 2°53.541 13.7414 0.105737 0.572499 -3.020363
2011-12-12 08:12:52 51°15.897 2°53.375 13.7394 0.105737 0.572509 -3.020363
2011-12-12 08:13:52 51°16.054 2°53.216 13.7409 0.105737 0.572549 -3.020363
2011-12-12 08:14:52 51°16.212 2°53.078 13.7738 0.105737 0.572569 -3.020363
2011-12-12 08:15:52 51°16.368 2°52.938 13.7734 0.105737 0.572628 -3.020363
2011-12-12 08:16:52 51°16.528 2°52.805 13.7847 0.105737 0.572648 -3.020363
2011-12-12 08:17:52 51°16.697 2°52.711 13.7904 0.105737 0.572688 -3.020363
2011-12-12 08:18:52 51°16.863 2°52.62 13.8216 0.105635 0.572148 -3.020363
2011-12-12 08:19:52 51°17.025 2°52.524 13.8325 0.105635 0.572178 -3.020363
2011-12-12 08:20:52 51°17.187 2°52.431 13.8381 0.105635 0.572237 -3.020363
2011-12-12 08:21:52 51°17.348 2°52.336 13.8467 0.105635 0.572287 -3.020363
2011-12-12 08:22:53 51°17.503 2°52.2 13.8604 0.105635 0.572316 -3.020363
2011-12-12 08:23:56 51°17.653 2°52.079 13.8815 0.105635 0.572307 -3.020363
2011-12-12 08:24:54 51°17.797 2°51.95 13.8972 0.105635 0.572356 -3.020363
2011-12-12 08:25:53 51°17.951 2°51.818 13.9114 0.105635 0.572396 -3.020363
2011-12-12 08:26:52 51°18.107 2°51.687 13.9223 0.105635 0.572445 -3.020363
2011-12-12 08:27:52 51°18.267 2°51.551 13.9352 0.105635 0.572485 -3.020363
2011-12-12 08:28:52 51°18.425 2°51.41 13.9464 0.105635 0.572515 -3.020363
2011-12-12 08:29:54 51°18.585 2°51.275 13.9749 0.105635 0.572515 -3.020363
2011-12-12 08:30:55 51°18.736 2°51.15 13.9803 0.105635 0.572525 -3.020363
2011-12-12 08:31:54 51°18.889 2°51.012 13.9955 0.105532 0.572014 -3.020363
2011-12-12 08:32:56 51°19.044 2°50.882 14.0086 0.105635 0.572614 -3.020363
2011-12-12 08:33:54 51°19.194 2°50.747 14.0196 0.105532 0.572074 -3.020363
2011-12-12 08:34:52 51°19.347 2°50.612 14.035 0.105532 0.572104 -3.020363
2011-12-12 08:35:52 51°19.505 2°50.479 14.0489 0.105532 0.572143 -3.020363
2011-12-12 08:36:52 51°19.668 2°50.329 14.0634 0.105532 0.572183 -3.020363
2011-12-12 08:37:52 51°19.838 2°50.195 14.0763 0.105532 0.572223 -3.020363
2011-12-12 08:38:53 51°20.009 2°50.074 14.0973 0.105532 0.572272 -3.020363
2011-12-12 08:39:52 51°20.166 2°49.95 14.1053 0.105429 0.571682 -3.020363
2011-12-12 08:40:54 51°20.33 2°49.819 14.1172 0.105532 0.572302 -3.020363
2011-12-12 08:41:53 51°20.489 2°49.692 14.1329 0.105532 0.572362 -3.020363
2011-12-12 08:42:52 51°20.65 2°49.562 14.1509 0.105532 0.572441 -3.020363
2011-12-12 08:43:53 51°20.814 2°49.428 14.1604 0.105532 0.572471 -3.020363
2011-12-12 08:44:52 51°20.978 2°49.297 14.1818 0.105429 0.57194 -3.020363
2011-12-12 08:45:52 51°21.141 2°49.168 14.1894 0.105429 0.57199 -3.020363
2011-12-12 08:46:52 51°21.307 2°49.033 14.2057 0.105429 0.572039 -3.020363
2011-12-12 08:47:52 51°21.471 2°48.912 14.2112 0.105429 0.572089 -3.020363
2011-12-12 08:48:53 51°21.635 2°48.779 14.2281 0.105429 0.572099 -3.020363
2011-12-12 08:49:54 51°21.803 2°48.644 14.2415 0.105429 0.572149 -3.020363
2011-12-12 08:50:54 51°21.967 2°48.528 14.2595 0.105429 0.572198 -3.020363
2011-12-12 08:51:52 51°22.131 2°48.403 14.2686 0.105429 0.572248 -3.020363
2011-12-12 08:52:52 51°22.299 2°48.277 14.2813 0.105429 0.572298 -3.020363
2011-12-12 08:53:56 51°22.468 2°48.146 14.2951 0.105429 0.572218 -3.020363
2011-12-12 08:54:54 51°22.627 2°48.028 14.3168 0.105326 0.571757 -3.020363
2011-12-12 08:55:53 51°22.784 2°47.901 14.3217 0.105326 0.571806 -3.020363
2011-12-12 08:56:52 51°22.947 2°47.769 14.3337 0.105326 0.571866 -3.020363
2011-12-12 08:57:53 51°23.123 2°47.649 14.3684 0.105326 0.571916 -3.020363
2011-12-12 08:58:52 51°23.289 2°47.543 14.3616 0.105326 0.571945 -3.020363
2011-12-12 08:59:52 51°23.459 2°47.429 14.3799 0.105326 0.571985 -3.020363
2011-12-12 09:00:52 51°23.631 2°47.307 14.3955 0.105326 0.572035 -3.020363
2011-12-12 09:01:52 51°23.802 2°47.192 14.4079 0.105326 0.572085 -3.020363
2011-12-12 09:02:52 51°23.97 2°47.08 14.4344 0.105326 0.572105 -3.020363
2011-12-12 09:03:52 51°24.14 2°46.969 14.443 0.105326 0.572184 -3.020363
2011-12-12 09:04:52 51°24.308 2°46.849 14.4453 0.105326 0.572214 -3.020363
2011-12-12 09:05:52 51°24.48 2°46.733 14.4747 0.105223 0.571672 -3.020363
2011-12-12 09:06:52 51°24.648 2°46.62 14.4826 0.105326 0.572294 -3.020363
2011-12-12 09:07:52 51°24.817 2°46.512 14.4909 0.105326 0.572324 -3.020363
2011-12-12 09:08:52 51°24.988 2°46.4 14.5045 0.105223 0.571792 -3.020363
2011-12-12 09:09:53 51°25.159 2°46.288 14.5188 0.105223 0.571861 -3.020363
2011-12-12 09:10:52 51°25.325 2°46.18 14.5408 0.105223 0.571881 -3.020363
2011-12-12 09:11:52 51°25.496 2°46.073 14.5555 0.105223 0.571941 -3.020363
2011-12-12 09:12:52 51°25.664 2°45.963 14.5673 0.105223 0.571971 -3.020363
2011-12-12 09:13:52 51°25.833 2°45.86 14.5825 0.105223 0.572011 -3.020363
2011-12-12 09:14:52 51°26.004 2°45.756 14.5942 0.105223 0.57209 -3.020363
2011-12-12 09:15:53 51°26.177 2°45.639 14.622 0.105223 0.57211 -3.020363
2011-12-12 09:16:54 51°26.344 2°45.53 14.6255 0.105223 0.57215 -3.020363
2011-12-12 09:17:52 51°26.506 2°45.42 14.6342 0.105223 0.57222 -3.020363
2011-12-12 09:18:52 51°26.675 2°45.312 14.6592 0.105223 0.57226 -3.020363
2011-12-12 09:19:52 51°26.843 2°45.187 14.6638 0.105121 0.571718 -3.020363
2011-12-12 09:20:53 51°27.015 2°45.059 14.6949 0.105121 0.571787 -3.020363
2011-12-12 09:21:54 51°27.184 2°44.942 14.7126 0.105121 0.571817 -3.020363
2011-12-12 09:22:53 51°27.346 2°44.831 14.7123 0.105121 0.571827 -3.020363
2011-12-12 09:23:54 51°27.52 2°44.709 14.7305 0.105121 0.571887 -3.020363
2011-12-12 09:24:53 51°27.689 2°44.589 14.7409 0.105121 0.571927 -3.020363
2011-12-12 09:25:52 51°27.857 2°44.471 14.7583 0.105121 0.571967 -3.020363
2011-12-12 09:26:52 51°28.027 2°44.348 14.7702 0.105121 0.572017 -3.020363
2011-12-12 09:27:52 51°28.199 2°44.234 14.7946 0.105121 0.572077 -3.020363
2011-12-12 09:28:52 51°28.368 2°44.117 14.8184 0.105121 0.572116 -3.020363
2011-12-12 09:29:52 51°28.537 2°43.998 14.8257 0.105121 0.572176 -3.020363
2011-12-12 09:30:53 51°28.707 2°43.886 14.8298 0.105121 0.572216 -3.020363
2011-12-12 09:31:52 51°28.871 2°43.774 14.8589 0.105121 0.572276 -3.020363
2011-12-12 09:32:52 51°29.041 2°43.658 14.8875 0.105018 0.571723 -3.020363
2011-12-12 09:33:53 51°29.211 2°43.537 14.9011 0.105121 0.572346 -3.020363
2011-12-12 09:34:52 51°29.373 2°43.425 14.8983 0.105121 0.572356 -3.020363
2011-12-12 09:35:52 51°29.544 2°43.31 14.8997 0.105018 0.571883 -3.020363
2011-12-12 09:36:52 51°29.718 2°43.288 14.9122 0.105018 0.571893 -3.020363
2011-12-12 09:37:52 51°29.891 2°43.367 14.9508 0.105018 0.571963 -3.020363
2011-12-12 09:38:52 51°30.06 2°43.451 14.9641 0.105018 0.572003 -3.020363
2011-12-12 09:39:52 51°30.231 2°43.525 14.9852 0.105018 0.572033 -3.020363
2011-12-12 09:40:52 51°30.401 2°43.608 14.9904 0.105018 0.572093 -3.020363
2011-12-12 09:41:52 51°30.569 2°43.695 15.0141 0.105018 0.572113 -3.020363
2011-12-12 09:42:52 51°30.74 2°43.778 15.0219 0.105018 0.572203 -3.020363
2011-12-12 09:43:52 51°30.91 2°43.867 15.0305 0.104915 0.571659 -3.020363
2011-12-12 09:44:52 51°31.082 2°43.948 15.0439 0.104915 0.571729 -3.020363
2011-12-12 09:45:52 51°31.253 2°44.035 15.0614 0.105018 0.572333 -3.020363
2011-12-12 09:46:52 51°31.426 2°44.117 15.0878 0.105018 0.572443 -3.020363
2011-12-12 09:47:52 51°31.596 2°44.204 15.1159 0.104915 0.571849 -3.020363
2011-12-12 09:48:52 51°31.766 2°44.287 15.1233 0.104915 0.571889 -3.020363
2011-12-12 09:49:52 51°31.936 2°44.373 15.1378 0.104915 0.571939 -3.020363
2011-12-12 09:50:52 51°32.103 2°44.459 15.1778 0.104915 0.571969 -3.020363
2011-12-12 09:51:52 51°32.275 2°44.534 15.1779 0.104915 0.572039 -3.020363
2011-12-12 09:52:52 51°32.445 2°44.614 15.2035 0.104915 0.572099 -3.020363
2011-12-12 09:53:52 51°32.614 2°44.694 15.2214 0.104915 0.572089 -3.020363
2011-12-12 09:54:52 51°32.783 2°44.788 15.2362 0.104915 0.572129 -3.020363
2011-12-12 09:55:52 51°32.954 2°44.873 15.241 0.104915 0.572189 -3.020363
2011-12-12 09:56:52 51°33.126 2°44.958 15.2634 0.104915 0.572189 -3.020363
2011-12-12 09:57:52 51°33.297 2°45.04 15.2811 0.104915 0.572269 -3.020363
2011-12-12 09:58:52 51°33.468 2°45.126 15.3043 0.104915 0.572269 -3.020363
2011-12-12 09:59:52 51°33.637 2°45.214 15.3149 0.104812 0.571726 -3.020363
2011-12-12 10:00:52 51°33.807 2°45.296 15.3392 0.104812 0.571756 -3.020363
2011-12-12 10:01:52 51°33.976 2°45.375 15.3456 0.104812 0.571816 -3.020363
2011-12-12 10:02:53 51°34.149 2°45.463 15.3515 0.104812 0.571886 -3.020363
2011-12-12 10:03:52 51°34.316 2°45.544 15.395 0.104812 0.571896 -3.020363
2011-12-12 10:04:52 51°34.487 2°45.626 15.4178 0.104812 0.571956 -3.020363
2011-12-12 10:05:52 51°34.659 2°45.709 15.4108 0.104812 0.572016 -3.020363
2011-12-12 10:06:52 51°34.831 2°45.786 15.4386 0.104812 0.572046 -3.020363
2011-12-12 10:07:52 51°35.003 2°45.867 15.4349 0.104812 0.572106 -3.020363
2011-12-12 10:08:52 51°35.178 2°45.941 15.4735 0.104812 0.572146 -3.020363
2011-12-12 10:09:52 51°35.35 2°46.021 15.4644 0.104812 0.572186 -3.020363
2011-12-12 10:10:52 51°35.523 2°46.097 15.5088 0.104812 0.572206 -3.020363
2011-12-12 10:11:52 51°35.692 2°46.197 15.5245 0.104709 0.571652 -3.020363
2011-12-12 10:12:52 51°35.851 2°46.341 15.5276 0.104812 0.572306 -3.020363
2011-12-12 10:13:52 51°36.007 2°46.485 15.5281 0.104709 0.571762 -3.020363
2011-12-12 10:14:52 51°36.168 2°46.623 15.5538 0.104812 0.572366 -3.020363
2011-12-12 10:15:52 51°36.331 2°46.749 15.5782 0.104709 0.571862 -3.020363
2011-12-12 10:16:52 51°36.492 2°46.875 15.5741 0.104709 0.571962 -3.020363
2011-12-12 10:17:52 51°36.652 2°47.005 15.5978 0.104709 0.571962 -3.020363
2011-12-12 10:18:52 51°36.811 2°47.143 15.6124 0.104709 0.572002 -3.020363
2011-12-12 10:19:52 51°36.975 2°47.255 15.6391 0.104709 0.572002 -3.020363
2011-12-12 10:20:52 51°37.141 2°47.369 15.6514 0.104709 0.572032 -3.020363
2011-12-12 10:21:52 51°37.313 2°47.462 15.6807 0.104709 0.572093 -3.020363
2011-12-12 10:22:52 51°37.481 2°47.563 15.6945 0.104709 0.572143 -3.020363
2011-12-12 10:23:52 51°37.651 2°47.664 15.6931 0.104709 0.572213 -3.020363
2011-12-12 10:24:52 51°37.82 2°47.768 15.7215 0.104709 0.572193 -3.020363
2011-12-12 10:25:52 51°37.985 2°47.886 15.7375 0.104606 0.571658 -3.020363
2011-12-12 10:26:52 51°38.142 2°48.029 15.743 0.104709 0.572263 -3.020363
2011-12-12 10:27:53 51°38.307 2°48.161 15.7701 0.104606 0.571728 -3.020363
2011-12-12 10:28:52 51°38.468 2°48.286 15.7733 0.104709 0.572374 -3.020363
2011-12-12 10:29:52 51°38.634 2°48.399 15.7924 0.104606 0.571809 -3.020363
2011-12-12 10:30:52 51°38.805 2°48.501 15.8199 0.104606 0.571869 -3.020363
2011-12-12 10:31:52 51°38.971 2°48.606 15.8248 0.104606 0.571859 -3.020363
2011-12-12 10:32:52 51°39.145 2°48.691 15.8481 0.104606 0.571949 -3.020363
2011-12-12 10:33:52 51°39.318 2°48.767 15.8607 0.104606 0.571989 -3.020363
2011-12-12 10:34:52 51°39.489 2°48.859 15.8662 0.104606 0.572009 -3.020363
2011-12-12 10:35:52 51°39.662 2°48.941 15.8971 0.104606 0.572029 -3.020363
2011-12-12 10:36:52 51°39.835 2°49.021 15.9029 0.104606 0.57208 -3.020363
2011-12-12 10:37:52 51°40.007 2°49.112 15.9142 0.104606 0.57208 -3.020363
2011-12-12 10:38:53 51°40.181 2°49.193 15.9313 0.104606 0.57218 -3.020363
2011-12-12 10:39:52 51°40.347 2°49.292 15.9526 0.104606 0.57219 -3.020363
2011-12-12 10:40:52 51°40.515 2°49.403 15.9669 0.104606 0.57222 -3.020363
2011-12-12 10:41:53 51°40.686 2°49.518 15.9805 0.104606 0.57224 -3.020363
2011-12-12 10:42:52 51°40.852 2°49.616 15.9973 0.104606 0.572311 -3.020363
2011-12-12 10:43:52 51°41.024 2°49.719 16.0055 0.104504 0.571755 -3.020363
2011-12-12 10:44:52 51°41.197 2°49.817 16.0382 0.104504 0.571775 -3.020363
2011-12-12 10:45:52 51°41.369 2°49.915 16.0503 0.104504 0.571795 -3.020363
2011-12-12 10:46:52 51°41.543 2°49.978 16.0497 0.104504 0.571866 -3.020363
2011-12-12 10:47:52 51°41.7 2°49.85 16.0583 0.104504 0.571866 -3.020363
2011-12-12 10:48:54 51°41.825 2°49.626 16.0761 0.104504 0.571826 -3.020363
2011-12-12 10:49:53 51°41.939 2°49.411 16.0989 0.104504 0.571856 -3.020363
2011-12-12 10:50:53 51°42.048 2°49.171 16.1018 0.104504 0.571936 -3.020363
2011-12-12 10:51:54 51°42.158 2°48.926 16.1227 0.104504 0.571946 -3.020363
2011-12-12 10:52:52 51°42.265 2°48.691 16.1471 0.104504 0.572016 -3.020363
2011-12-12 10:53:54 51°42.375 2°48.455 16.1517 0.104504 0.572067 -3.020363
2011-12-12 10:54:53 51°42.362 2°48.183 16.1686 0.104504 0.572077 -3.020363
2011-12-12 10:55:54 51°42.204 2°48.028 16.1601 0.104504 0.572067 -3.020363
2011-12-12 10:56:54 51°42.012 2°47.95 16.1742 0.104504 0.572137 -3.020363
2011-12-12 10:57:52 51°41.821 2°47.877 16.209 0.104401 0.571612 -3.020363
2011-12-12 10:58:53 51°41.622 2°47.799 16.2211 0.104504 0.572218 -3.020363
2011-12-12 10:59:54 51°41.424 2°47.721 16.236 0.104401 0.571672 -3.020363
2011-12-12 11:00:53 51°41.236 2°47.643 16.2597 0.104504 0.572308 -3.020363
2011-12-12 11:01:53 51°41.041 2°47.552 16.2721 0.104504 0.572358 -3.020363
2011-12-12 11:02:52 51°40.851 2°47.445 16.2995 0.104401 0.571813 -3.020363
2011-12-12 11:03:53 51°40.66 2°47.337 16.3131 0.104401 0.571873 -3.020363
2011-12-12 11:04:52 51°40.474 2°47.233 16.3277 0.104401 0.571953 -3.020363
2011-12-12 11:05:52 51°40.283 2°47.124 16.3437 0.104401 0.572004 -3.020363
2011-12-12 11:06:53 51°40.098 2°47.016 16.3722 0.104401 0.572034 -3.020363
2011-12-12 11:07:52 51°39.915 2°46.896 16.3811 0.104401 0.572104 -3.020363
2011-12-12 11:08:53 51°39.721 2°46.775 16.3916 0.104401 0.572145 -3.020363
2011-12-12 11:09:55 51°39.532 2°46.67 16.4139 0.104401 0.572175 -3.020363
2011-12-12 11:10:54 51°39.346 2°46.562 16.4303 0.104401 0.572255 -3.020363
2011-12-12 11:11:52 51°39.163 2°46.447 16.4449 0.104401 0.572306 -3.020363
2011-12-12 11:12:56 51°38.968 2°46.337 16.4603 0.104298 0.571749 -3.020363
2011-12-12 11:13:54 51°38.789 2°46.235 16.4782 0.104401 0.572427 -3.020363
2011-12-12 11:14:53 51°38.608 2°46.125 16.4883 0.104298 0.57186 -3.020363
2011-12-12 11:15:52 51°38.428 2°46.019 16.5059 0.104298 0.571931 -3.020363
2011-12-12 11:16:52 51°38.243 2°45.91 16.5237 0.104298 0.571991 -3.020363
2011-12-12 11:17:52 51°38.057 2°45.802 16.5502 0.104298 0.572041 -3.020363
2011-12-12 11:18:52 51°37.869 2°45.684 16.5509 0.104298 0.572102 -3.020363
2011-12-12 11:19:53 51°37.679 2°45.573 16.5628 0.104298 0.572142 -3.020363
2011-12-12 11:20:52 51°37.497 2°45.468 16.573 0.104298 0.572213 -3.020363
2011-12-12 11:21:52 51°37.31 2°45.357 16.5966 0.104298 0.572253 -3.020363
2011-12-12 11:22:52 51°37.124 2°45.248 16.6011 0.104195 0.571727 -3.020363
2011-12-12 11:23:52 51°36.933 2°45.142 16.6273 0.104195 0.571787 -3.020363
2011-12-12 11:24:53 51°36.738 2°45.04 16.6501 0.104298 0.572435 -3.020363
2011-12-12 11:25:52 51°36.556 2°44.946 16.6724 0.104298 0.572485 -3.020363
2011-12-12 11:26:54 51°36.36 2°44.852 16.6772 0.104195 0.571958 -3.020363
2011-12-12 11:27:53 51°36.176 2°44.755 16.697 0.104195 0.572019 -3.020363
2011-12-12 11:28:53 51°35.99 2°44.658 16.7048 0.104195 0.572049 -3.020363
2011-12-12 11:29:52 51°35.806 2°44.561 16.7249 0.104195 0.57213 -3.020363
2011-12-12 11:30:53 51°35.619 2°44.464 16.7347 0.104195 0.572191 -3.020363
2011-12-12 11:31:52 51°35.436 2°44.368 16.747 0.104195 0.572271 -3.020363
2011-12-12 11:32:52 51°35.251 2°44.279 16.7692 0.104195 0.572302 -3.020363
2011-12-12 11:33:53 51°35.062 2°44.182 16.7777 0.104195 0.572383 -3.020363
2011-12-12 11:34:52 51°34.88 2°44.089 16.7949 0.104195 0.572443 -3.020363
2011-12-12 11:35:54 51°34.693 2°43.998 16.8103 0.104092 0.571916 -3.020363
2011-12-12 11:36:52 51°34.516 2°43.909 16.8143 0.104092 0.571987 -3.020363
2011-12-12 11:37:52 51°34.332 2°43.818 16.8358 0.104092 0.572057 -3.020363
2011-12-12 11:38:52 51°34.147 2°43.727 16.8529 0.104092 0.572138 -3.020363
2011-12-12 11:39:52 51°33.966 2°43.636 16.8598 0.104092 0.572179 -3.020363
2011-12-12 11:40:52 51°33.784 2°43.541 16.8833 0.104092 0.57227 -3.020363
2011-12-12 11:41:52 51°33.603 2°43.456 16.8903 0.104092 0.57233 -3.020363
2011-12-12 11:42:53 51°33.428 2°43.342 16.9108 0.104092 0.572381 -3.020363
2011-12-12 11:43:52 51°33.321 2°43.122 16.9177 0.104092 0.572442 -3.020363
2011-12-12 11:44:53 51°33.22 2°42.894 16.9356 0.104092 0.572472 -3.020363
2011-12-12 11:45:52 51°33.127 2°42.656 16.9526 0.104092 0.572553 -3.020363
2011-12-12 11:46:53 51°33.035 2°42.41 16.968 0.104092 0.572614 -3.020363
2011-12-12 11:47:52 51°32.946 2°42.176 16.9803 0.104092 0.572665 -3.020363
2011-12-12 11:48:52 51°32.851 2°41.93 16.9996 0.10399 0.572157 -3.020363
2011-12-12 11:49:56 51°32.753 2°41.685 17.0084 0.10399 0.572106 -3.020363
2011-12-12 11:50:56 51°32.662 2°41.451 17.0232 0.10399 0.572238 -3.020363
2011-12-12 11:51:55 51°32.625 2°41.187 17.0338 0.10399 0.572319 -3.020363
2011-12-12 11:52:52 51°32.671 2°40.939 17.0424 0.10399 0.57239 -3.020363
2011-12-12 11:53:52 51°32.835 2°40.82 17.0652 0.10399 0.57244 -3.020363
2011-12-12 11:54:52 51°33.028 2°40.889 17.077 0.10399 0.572491 -3.020363
2011-12-12 11:55:53 51°33.222 2°40.998 17.0819 0.103887 0.572013 -3.020363
2011-12-12 11:56:52 51°33.408 2°41.109 17.0817 0.103887 0.572044 -3.020363
2011-12-12 11:57:52 51°33.599 2°41.232 17.0958 0.10399 0.572674 -3.020363
2011-12-12 11:58:53 51°33.791 2°41.358 17.0947 0.10399 0.572755 -3.020363
2011-12-12 11:59:52 51°33.977 2°41.481 17.112 0.103887 0.572196 -3.020363
2011-12-12 12:00:53 51°34.167 2°41.62 17.1168 0.103887 0.572257 -3.020363
2011-12-12 12:01:53 51°34.355 2°41.751 17.1281 0.103887 0.572257 -3.020363
2011-12-12 12:02:53 51°34.545 2°41.882 17.1411 0.103887 0.572297 -3.020363
2011-12-12 12:03:52 51°34.734 2°42.007 17.1472 0.103887 0.572348 -3.020363
2011-12-12 12:04:52 51°34.921 2°42.15 17.1607 0.103887 0.572439 -3.020363
2011-12-12 12:05:52 51°35.113 2°42.27 17.1724 0.103887 0.57246 -3.020363
2011-12-12 12:06:52 51°35.308 2°42.373 17.1835 0.103887 0.572531 -3.020363
2011-12-12 12:07:52 51°35.504 2°42.484 17.1891 0.103887 0.572561 -3.020363
2011-12-12 12:08:52 51°35.702 2°42.589 17.2003 0.103887 0.572571 -3.020363
2011-12-12 12:09:53 51°35.901 2°42.705 17.2082 0.103784 0.572022 -3.020363
2011-12-12 12:10:52 51°36.095 2°42.81 17.2183 0.103784 0.572103 -3.020363
2011-12-12 12:11:53 51°36.297 2°42.905 17.2286 0.103784 0.572123 -3.020363
2011-12-12 12:12:52 51°36.495 2°42.981 17.2397 0.103784 0.572164 -3.020363
2011-12-12 12:13:52 51°36.695 2°43.062 17.2437 0.103784 0.572195 -3.020363
2011-12-12 12:14:52 51°36.895 2°43.145 17.2556 0.103784 0.572245 -3.020363
2011-12-12 12:15:52 51°37.095 2°43.223 17.2622 0.103784 0.572286 -3.020363
2011-12-12 12:16:52 51°37.297 2°43.306 17.2619 0.103784 0.572296 -3.020363
2011-12-12 12:17:52 51°37.5 2°43.381 17.2863 0.103784 0.572377 -3.020363
2011-12-12 12:18:53 51°37.705 2°43.463 17.2952 0.103784 0.572408 -3.020363
2011-12-12 12:19:52 51°37.904 2°43.539 17.3046 0.103784 0.57252 -3.020363
2011-12-12 12:20:53 51°38.108 2°43.622 17.3142 0.103784 0.572509 -3.020363
2011-12-12 12:21:53 51°38.308 2°43.692 17.3104 0.103681 0.57199 -3.020363
2011-12-12 12:22:53 51°38.508 2°43.766 17.3285 0.103784 0.572672 -3.020363
2011-12-12 12:23:52 51°38.708 2°43.851 17.3418 0.103784 0.572672 -3.020363
2011-12-12 12:24:53 51°38.914 2°43.936 17.3486 0.103681 0.572183 -3.020363
2011-12-12 12:25:52 51°39.114 2°44.017 17.3605 0.103784 0.572754 -3.020363
2011-12-12 12:26:52 51°39.318 2°44.095 17.368 0.103681 0.572204 -3.020363
2011-12-12 12:27:53 51°39.525 2°44.176 17.3756 0.103681 0.572265 -3.020363
2011-12-12 12:28:52 51°39.725 2°44.255 17.3835 0.103681 0.572315 -3.020363
2011-12-12 12:29:53 51°39.935 2°44.324 17.3915 0.103681 0.572346 -3.020363
2011-12-12 12:30:52 51°40.135 2°44.408 17.3982 0.103681 0.572407 -3.020363
2011-12-12 12:31:53 51°40.343 2°44.508 17.4066 0.103681 0.572427 -3.020363
2011-12-12 12:32:52 51°40.539 2°44.62 17.4139 0.103681 0.572438 -3.020363
2011-12-12 12:33:52 51°40.742 2°44.732 17.4231 0.103681 0.572478 -3.020363
2011-12-12 12:34:53 51°40.947 2°44.829 17.4238 0.103681 0.57256 -3.020363
2011-12-12 12:35:52 51°41.146 2°44.93 17.4397 0.103681 0.572682 -3.020363
2011-12-12 12:36:52 51°41.348 2°45.043 17.4468 0.103578 0.57206 -3.020363
2011-12-12 12:37:52 51°41.549 2°45.153 17.4601 0.103578 0.572121 -3.020363
2011-12-12 12:38:53 51°41.757 2°45.264 17.4744 0.103578 0.572142 -3.020363
2011-12-12 12:39:52 51°41.957 2°45.367 17.4807 0.103578 0.572254 -3.020363
2011-12-12 12:40:52 51°42.159 2°45.468 17.4844 0.103578 0.572233 -3.020363
2011-12-12 12:41:52 51°42.363 2°45.581 17.4924 0.103578 0.572284 -3.020363
2011-12-12 12:42:53 51°42.569 2°45.677 17.4889 0.103578 0.572305 -3.020363
2011-12-12 12:43:53 51°42.772 2°45.783 17.5073 0.103578 0.572396 -3.020363
2011-12-12 12:44:52 51°42.973 2°45.883 17.5176 0.103578 0.572427 -3.020363
2011-12-12 12:45:52 51°43.179 2°45.993 17.5231 0.103578 0.572447 -3.020363
2011-12-12 12:46:52 51°43.382 2°46.097 17.5165 0.103578 0.572498 -3.020363
2011-12-12 12:47:54 51°43.539 2°45.967 17.5213 0.103578 0.572498 -3.020363
2011-12-12 12:48:54 51°43.636 2°45.745 17.5454 0.103578 0.572488 -3.020363
2011-12-12 12:49:54 51°43.741 2°45.52 17.5571 0.103578 0.572559 -3.020363
2011-12-12 12:50:54 51°43.85 2°45.298 17.5683 0.103476 0.572029 -3.020363
2011-12-12 12:51:52 51°43.957 2°45.077 17.5806 0.103476 0.572059 -3.020363
2011-12-12 12:52:54 51°44.068 2°44.842 17.5902 0.103476 0.57208 -3.020363
2011-12-12 12:53:53 51°44.176 2°44.625 17.5944 0.103578 0.572712 -3.020363
2011-12-12 12:54:54 51°44.2 2°44.382 17.6001 0.103476 0.572192 -3.020363
2011-12-12 12:55:52 51°44.059 2°44.293 17.6129 0.103476 0.572233 -3.020363
2011-12-12 12:56:52 51°43.906 2°44.171 17.628 0.103476 0.572263 -3.020363
2011-12-12 12:57:53 51°43.744 2°44.073 17.6383 0.103476 0.572335 -3.020363
2011-12-12 12:58:53 51°43.582 2°44.003 17.6505 0.103476 0.572345 -3.020363
2011-12-12 12:59:52 51°43.418 2°43.916 17.6642 0.103476 0.572396 -3.020363
2011-12-12 13:00:53 51°43.248 2°43.833 17.6747 0.103476 0.572457 -3.020363
2011-12-12 13:01:53 51°43.084 2°43.761 17.6849 0.103476 0.572498 -3.020363
2011-12-12 13:02:52 51°42.923 2°43.686 17.6948 0.103476 0.572529 -3.020363
2011-12-12 13:03:54 51°42.756 2°43.609 17.7046 0.103476 0.572559 -3.020363
2011-12-12 13:04:56 51°42.591 2°43.535 17.7137 0.103476 0.5726 -3.020363
2011-12-12 13:05:56 51°42.429 2°43.464 17.7284 0.103476 0.572682 -3.020363
2011-12-12 13:06:54 51°42.27 2°43.384 17.7423 0.103373 0.572151 -3.020363
2011-12-12 13:07:53 51°42.109 2°43.308 17.757 0.103373 0.572202 -3.020363
2011-12-12 13:08:53 51°41.943 2°43.235 17.7681 0.103373 0.572263 -3.020363
2011-12-12 13:09:53 51°41.78 2°43.16 17.781 0.103373 0.572294 -3.020363
2011-12-12 13:10:53 51°41.614 2°43.085 17.7887 0.103373 0.572334 -3.020363
2011-12-12 13:11:53 51°41.452 2°43.017 17.8054 0.103373 0.572426 -3.020363
2011-12-12 13:12:53 51°41.29 2°42.945 17.8136 0.103373 0.572477 -3.020363
2011-12-12 13:13:52 51°41.13 2°42.872 17.8227 0.103373 0.572549 -3.020363
2011-12-12 13:14:53 51°40.964 2°42.797 17.8326 0.103373 0.57258 -3.020363
2011-12-12 13:15:52 51°40.801 2°42.724 17.8476 0.103373 0.572672 -3.020363
2011-12-12 13:16:52 51°40.637 2°42.641 17.858 0.10327 0.57214 -3.020363
2011-12-12 13:17:53 51°40.47 2°42.566 17.8657 0.103373 0.572764 -3.020363
2011-12-12 13:18:53 51°40.306 2°42.489 17.882 0.10327 0.572222 -3.020363
2011-12-12 13:19:53 51°40.142 2°42.41 17.8923 0.10327 0.572283 -3.020363
2011-12-12 13:20:53 51°39.984 2°42.329 17.8995 0.10327 0.572324 -3.020363
2011-12-12 13:21:52 51°39.832 2°42.238 17.9047 0.10327 0.572375 -3.020363
2011-12-12 13:22:53 51°39.675 2°42.147 17.9225 0.10327 0.572437 -3.020363
2011-12-12 13:23:53 51°39.515 2°42.052 17.9387 0.10327 0.572498 -3.020363
2011-12-12 13:24:52 51°39.357 2°41.96 17.948 0.10327 0.572559 -3.020363
2011-12-12 13:25:53 51°39.198 2°41.872 17.9533 0.10327 0.5726 -3.020363
2011-12-12 13:26:52 51°39.044 2°41.781 17.9624 0.103167 0.572079 -3.020363
2011-12-12 13:27:52 51°38.886 2°41.681 17.9818 0.103167 0.57214 -3.020363
2011-12-12 13:28:53 51°38.727 2°41.594 17.9842 0.103167 0.572191 -3.020363
2011-12-12 13:29:52 51°38.569 2°41.524 17.9913 0.103167 0.572242 -3.020363
2011-12-12 13:30:52 51°38.416 2°41.433 18.0029 0.103167 0.572293 -3.020363
2011-12-12 13:31:52 51°38.259 2°41.341 18.0155 0.103167 0.572375 -3.020363
2011-12-12 13:32:52 51°38.103 2°41.252 18.0329 0.103167 0.572427 -3.020363
2011-12-12 13:33:53 51°37.947 2°41.169 18.165 0.103167 0.572457 -3.020363
2011-12-12 13:34:52 51°37.795 2°41.076 18.1338 0.103167 0.572519 -3.020363
2011-12-12 13:35:53 51°37.635 2°40.984 18.1778 0.103064 0.571986 -3.020363
2011-12-12 13:36:54 51°37.481 2°40.906 18.1899 0.103064 0.572038 -3.020363
2011-12-12 13:37:53 51°37.327 2°40.814 18.2209 0.103167 0.572693 -3.020363
2011-12-12 13:38:53 51°37.171 2°40.723 18.2611 0.103064 0.57216 -3.020363
2011-12-12 13:39:55 51°37.011 2°40.639 17.0083 0.103064 0.572201 -3.020363
2011-12-12 13:40:55 51°36.865 2°40.554 17.3613 0.103064 0.572253 -3.020363
2011-12-12 13:41:56 51°36.712 2°40.464 17.3669 0.103064 0.572335 -3.020363
2011-12-12 13:42:55 51°36.561 2°40.385 17.512 0.103064 0.572396 -3.020363
2011-12-12 13:43:55 51°36.405 2°40.305 17.6924 0.103064 0.572458 -3.020363
2011-12-12 13:44:54 51°36.257 2°40.229 17.5246 0.103064 0.57253 -3.020363
2011-12-12 13:45:53 51°36.104 2°40.138 17.5977 0.103064 0.572591 -3.020363
2011-12-12 13:46:53 51°35.948 2°40.059 17.5793 0.103064 0.572653 -3.020363
2011-12-12 13:47:52 51°35.794 2°39.987 17.5505 0.103064 0.572684 -3.020363
2011-12-12 13:48:52 51°35.636 2°39.9 17.6217 0.102962 0.572181 -3.020363
2011-12-12 13:49:53 51°35.479 2°39.819 17.601 0.102962 0.572222 -3.020363
2011-12-12 13:50:53 51°35.322 2°39.73 17.6855 0.102962 0.572284 -3.020363
2011-12-12 13:51:52 51°35.166 2°39.653 17.7338 0.102962 0.572346 -3.020363
2011-12-12 13:52:54 51°35.007 2°39.568 17.6954 0.102962 0.572397 -3.020363
2011-12-12 13:53:54 51°34.852 2°39.488 17.7075 0.102962 0.572459 -3.020363
2011-12-12 13:54:52 51°34.699 2°39.404 17.7495 0.102962 0.57253 -3.020363
2011-12-12 13:55:53 51°34.542 2°39.321 17.6328 0.102962 0.572602 -3.020363
2011-12-12 13:56:52 51°34.39 2°39.237 17.7463 0.102962 0.572664 -3.020363
2011-12-12 13:57:52 51°34.236 2°39.149 17.7446 0.102859 0.57212 -3.020363
2011-12-12 13:58:52 51°34.079 2°39.064 17.8088 0.102859 0.572182 -3.020363
2011-12-12 13:59:53 51°33.925 2°38.981 17.8118 0.102859 0.572243 -3.020363
2011-12-12 14:00:53 51°33.769 2°38.896 17.8026 0.102859 0.572315 -3.020363
2011-12-12 14:01:53 51°33.617 2°38.816 17.8082 0.102859 0.572346 -3.020363
2011-12-12 14:02:53 51°33.463 2°38.729 17.7362 0.102859 0.572429 -3.020363
2011-12-12 14:03:54 51°33.308 2°38.648 17.8336 0.102859 0.57249 -3.020363
2011-12-12 14:04:53 51°33.159 2°38.562 17.81 0.102859 0.572542 -3.020363
2011-12-12 14:05:52 51°33.003 2°38.476 17.8445 0.102859 0.572593 -3.020363
2011-12-12 14:06:53 51°32.847 2°38.391 17.8152 0.102756 0.572059 -3.020363
2011-12-12 14:07:52 51°32.696 2°38.309 17.8792 0.102859 0.572717 -3.020363
2011-12-12 14:08:52 51°32.539 2°38.219 17.8985 0.102756 0.572203 -3.020363
2011-12-12 14:09:52 51°32.382 2°38.137 17.9025 0.102756 0.572244 -3.020363
2011-12-12 14:10:53 51°32.222 2°38.055 17.9446 0.102756 0.572296 -3.020363
2011-12-12 14:11:53 51°32.067 2°37.98 17.9104 0.102756 0.572337 -3.020363
2011-12-12 14:12:52 51°31.916 2°37.903 17.8993 0.102756 0.572419 -3.020363
2011-12-12 14:13:53 51°31.76 2°37.815 17.9412 0.102756 0.572481 -3.020363
2011-12-12 14:14:52 51°31.606 2°37.742 17.9341 0.102756 0.572553 -3.020363
2011-12-12 14:15:53 51°31.451 2°37.668 17.963 0.102756 0.572584 -3.020363
2011-12-12 14:16:53 51°31.298 2°37.592 17.9701 0.102756 0.572636 -3.020363
2011-12-12 14:17:53 51°31.148 2°37.509 17.9747 0.102756 0.572728 -3.020363
2011-12-12 14:18:52 51°30.996 2°37.435 18.0047 0.102653 0.572183 -3.020363
2011-12-12 14:19:52 51°30.844 2°37.355 18.0185 0.102756 0.572832 -3.020363
2011-12-12 14:20:53 51°30.688 2°37.27 18.0219 0.102653 0.572297 -3.020363
2011-12-12 14:21:53 51°30.537 2°37.19 18.0365 0.102653 0.572348 -3.020363
2011-12-12 14:22:53 51°30.382 2°37.109 18.0464 0.102653 0.57241 -3.020363
2011-12-12 14:23:52 51°30.231 2°37.028 18.0487 0.102653 0.572472 -3.020363
2011-12-12 14:24:53 51°30.077 2°36.948 18.0601 0.102653 0.572493 -3.020363
2011-12-12 14:25:52 51°29.929 2°36.866 18.0702 0.102653 0.572575 -3.020363
2011-12-12 14:26:52 51°29.779 2°36.786 18.0713 0.102653 0.572627 -3.020363
2011-12-12 14:27:53 51°29.624 2°36.708 18.0874 0.102653 0.572679 -3.020363
2011-12-12 14:28:53 51°29.469 2°36.625 18.11 0.102653 0.572751 -3.020363
2011-12-12 14:29:53 51°29.317 2°36.534 18.1271 0.102653 0.572813 -3.020363
2011-12-12 14:30:52 51°29.165 2°36.462 18.1196 0.102653 0.572895 -3.020363
2011-12-12 14:31:53 51°29.001 2°36.57 18.139 0.10255 0.572339 -3.020363
2011-12-12 14:32:53 51°28.849 2°36.765 18.0678 0.10255 0.572401 -3.020363
2011-12-12 14:33:53 51°28.696 2°36.953 18.1524 0.10255 0.572443 -3.020363
2011-12-12 14:34:52 51°28.543 2°37.134 18.1367 0.10255 0.572536 -3.020363
2011-12-12 14:35:53 51°28.386 2°37.323 17.9876 0.10255 0.572556 -3.020363
2011-12-12 14:36:52 51°28.239 2°37.518 18.0883 0.10255 0.572567 -3.020363
2011-12-12 14:37:53 51°28.086 2°37.716 18.1473 0.10255 0.572598 -3.020363
2011-12-12 14:38:53 51°27.939 2°37.922 18.1693 0.10255 0.57267 -3.020363
2011-12-12 14:39:52 51°27.794 2°38.124 18.147 0.10255 0.572742 -3.020363
2011-12-12 14:40:53 51°27.646 2°38.334 18.0903 0.10255 0.572742 -3.020363
2011-12-12 14:41:53 51°27.5 2°38.54 18.1248 0.10255 0.572763 -3.020363
2011-12-12 14:42:52 51°27.359 2°38.745 18.1692 0.10255 0.572815 -3.020363
2011-12-12 14:43:52 51°27.215 2°38.952 18.1845 0.10255 0.572856 -3.020363
2011-12-12 14:44:52 51°27.07 2°39.159 18.2423 0.10255 0.572898 -3.020363
2011-12-12 14:45:53 51°26.924 2°39.374 18.1605 0.10255 0.572939 -3.020363
2011-12-12 14:46:52 51°26.781 2°39.578 18.1639 0.10255 0.57296 -3.020363
2011-12-12 14:47:53 51°26.633 2°39.787 18.2012 0.10255 0.573011 -3.020363
2011-12-12 14:48:53 51°26.486 2°39.996 18.2001 0.10255 0.573073 -3.020363
2011-12-12 14:49:52 51°26.347 2°40.208 18.2385 0.10255 0.573084 -3.020363
2011-12-12 14:50:52 51°26.21 2°40.437 18.2452 0.10255 0.573105 -3.020363
2011-12-12 14:51:53 51°26.064 2°40.661 18.2659 0.10255 0.573125 -3.020363
2011-12-12 14:52:52 51°25.934 2°40.899 18.2501 0.10255 0.573187 -3.020363
2011-12-12 14:53:53 51°25.806 2°41.153 18.286 0.102448 0.572631 -3.020363
2011-12-12 14:54:53 51°25.699 2°41.384 18.2739 0.102448 0.572693 -3.020363
2011-12-12 14:55:53 51°25.597 2°41.605 18.2319 0.102448 0.572693 -3.020363
2011-12-12 14:56:52 51°25.496 2°41.819 18.232 0.102448 0.572776 -3.020363
2011-12-12 14:57:52 51°25.395 2°42.035 18.2686 0.102448 0.572838 -3.020363
2011-12-12 14:58:53 51°25.288 2°42.254 18.2613 0.102448 0.572817 -3.020363
2011-12-12 14:59:52 51°25.178 2°42.5 18.3275 0.102448 0.572889 -3.020363
2011-12-12 15:00:53 51°25.054 2°42.763 18.3303 0.102448 0.57291 -3.020363
2011-12-12 15:01:52 51°24.916 2°42.986 18.2753 0.102448 0.572941 -3.020363
2011-12-12 15:02:52 51°24.773 2°43.208 18.3278 0.102448 0.572983 -3.020363
2011-12-12 15:03:53 51°24.626 2°43.436 18.3603 0.102448 0.572993 -3.020363
2011-12-12 15:04:53 51°24.476 2°43.647 18.3293 0.102448 0.573035 -3.020363
2011-12-12 15:05:53 51°24.327 2°43.858 18.3798 0.102448 0.573066 -3.020363
2011-12-12 15:06:52 51°24.177 2°44.063 18.3928 0.102448 0.573107 -3.020363
2011-12-12 15:07:53 51°24.022 2°44.277 18.3801 0.102448 0.573159 -3.020363
2011-12-12 15:08:53 51°23.869 2°44.484 18.3888 0.102448 0.573169 -3.020363
2011-12-12 15:09:53 51°23.717 2°44.695 18.4101 0.102448 0.573201 -3.020363
2011-12-12 15:10:52 51°23.569 2°44.903 18.3814 0.102448 0.573252 -3.020363
2011-12-12 15:11:52 51°23.42 2°45.115 18.367 0.102448 0.573273 -3.020363
2011-12-12 15:12:53 51°23.306 2°45.39 18.4221 0.102448 0.573346 -3.020363
2011-12-12 15:13:53 51°23.206 2°45.678 18.3321 0.102345 0.572809 -3.020363
2011-12-12 15:14:53 51°23.099 2°45.954 18.449 0.102345 0.572809 -3.020363
2011-12-12 15:15:52 51°22.99 2°46.225 18.4279 0.102345 0.572892 -3.020363
2011-12-12 15:16:53 51°22.867 2°46.494 18.4001 0.102345 0.572882 -3.020363
2011-12-12 15:17:53 51°22.739 2°46.741 18.4143 0.102345 0.572934 -3.020363
2011-12-12 15:18:52 51°22.589 2°46.934 18.4497 0.102345 0.572996 -3.020363
2011-12-12 15:19:52 51°22.426 2°47.11 18.4479 0.102345 0.573017 -3.020363
2011-12-12 15:20:52 51°22.265 2°47.286 18.4454 0.102345 0.573068 -3.020363
2011-12-12 15:21:53 51°22.1 2°47.471 18.4422 0.102345 0.5731 -3.020363
2011-12-12 15:22:53 51°21.938 2°47.654 18.482 0.102345 0.573162 -3.020363
2011-12-12 15:23:52 51°21.778 2°47.836 18.4986 0.102345 0.573203 -3.020363
2011-12-12 15:24:52 51°21.613 2°48.021 18.4719 0.102345 0.573214 -3.020363
2011-12-12 15:25:53 51°21.444 2°48.202 18.529 0.102345 0.573276 -3.020363
2011-12-12 15:26:52 51°21.283 2°48.382 18.516 0.102345 0.573328 -3.020363
2011-12-12 15:27:53 51°21.118 2°48.57 18.5423 0.102242 0.57278 -3.020363
2011-12-12 15:28:52 51°20.959 2°48.75 18.5511 0.102345 0.573411 -3.020363
2011-12-12 15:29:52 51°20.799 2°48.937 18.4713 0.102242 0.572895 -3.020363
2011-12-12 15:30:53 51°20.64 2°49.13 18.5075 0.102242 0.572936 -3.020363
2011-12-12 15:31:52 51°20.481 2°49.309 18.4937 0.102242 0.572957 -3.020363
2011-12-12 15:32:53 51°20.319 2°49.494 18.5686 0.102242 0.573019 -3.020363
2011-12-12 15:33:53 51°20.156 2°49.672 18.5489 0.102242 0.573009 -3.020363
2011-12-12 15:34:52 51°19.998 2°49.851 18.5846 0.102242 0.573113 -3.020363
2011-12-12 15:35:52 51°19.839 2°50.036 18.5923 0.102242 0.573113 -3.020363
2011-12-12 15:36:53 51°19.675 2°50.214 18.5378 0.102242 0.573134 -3.020363
2011-12-12 15:37:52 51°19.515 2°50.385 18.5706 0.102242 0.573186 -3.020363
2011-12-12 15:38:53 51°19.35 2°50.565 18.5849 0.102242 0.573207 -3.020363
2011-12-12 15:39:52 51°19.19 2°50.738 18.5819 0.102242 0.573311 -3.020363
2011-12-12 15:40:52 51°19.025 2°50.902 18.5569 0.102242 0.573321 -3.020363
2011-12-12 15:41:53 51°18.855 2°51.067 18.6178 0.102242 0.573373 -3.020363
2011-12-12 15:42:52 51°18.696 2°51.233 18.6241 0.102139 0.572846 -3.020363
2011-12-12 15:43:53 51°18.523 2°51.384 18.6429 0.102139 0.572898 -3.020363
2011-12-12 15:44:52 51°18.354 2°51.518 18.5933 0.102139 0.572929 -3.020363
2011-12-12 15:45:53 51°18.177 2°51.649 18.6085 0.102139 0.57297 -3.020363
2011-12-12 15:46:53 51°18.008 2°51.788 18.6077 0.102139 0.573043 -3.020363
2011-12-12 15:47:52 51°17.842 2°51.928 18.5916 0.102139 0.573085 -3.020363
2011-12-12 15:48:53 51°17.669 2°52.065 18.5939 0.102139 0.573095 -3.020363
2011-12-12 15:49:53 51°17.499 2°52.197 18.6451 0.102139 0.573137 -3.020363
2011-12-12 15:50:53 51°17.328 2°52.336 18.629 0.102139 0.5732 -3.020363
2011-12-12 15:51:52 51°17.16 2°52.469 18.6564 0.102139 0.573241 -3.020363
2011-12-12 15:52:53 51°16.987 2°52.608 18.6548 0.102139 0.573283 -3.020363
2011-12-12 15:53:52 51°16.818 2°52.74 18.6417 0.102139 0.573335 -3.020363
2011-12-12 15:54:53 51°16.644 2°52.887 18.6224 0.102036 0.572817 -3.020363
2011-12-12 15:55:53 51°16.466 2°53.014 18.6665 0.102036 0.572849 -3.020363
2011-12-12 15:56:52 51°16.29 2°53.134 18.6767 0.102139 0.573481 -3.020363
2011-12-12 15:57:53 51°16.107 2°53.262 18.6766 0.102036 0.572932 -3.020363
2011-12-12 15:58:52 51°15.935 2°53.396 18.6841 0.102036 0.573005 -3.020363
2011-12-12 15:59:53 51°15.767 2°53.567 18.6877 0.102036 0.573047 -3.020363
2011-12-12 16:00:53 51°15.614 2°53.769 18.7019 0.102036 0.573099 -3.020363
2011-12-12 16:01:53 51°15.462 2°53.971 18.667 0.102036 0.573141 -3.020363
2011-12-12 16:02:52 51°15.311 2°54.166 18.6922 0.102036 0.573214 -3.020363
2011-12-12 16:03:52 51°15.155 2°54.358 18.6877 0.102036 0.573245 -3.020363
2011-12-12 16:04:53 51°14.999 2°54.556 18.7192 0.102036 0.573307 -3.020363
2011-12-12 16:05:53 51°14.839 2°54.742 18.7325 0.102036 0.573349 -3.020363
2011-12-12 16:06:53 51°14.677 2°54.919 18.716 0.101933 0.5728 -3.020363
2011-12-12 16:07:52 51°14.512 2°55.077 18.737 0.102036 0.573433 -3.020363
2011-12-12 16:08:54 51°14.339 2°55.244 18.7442 0.101933 0.572883 -3.020363
2011-12-12 16:09:54 51°14.193 2°55.369 18.7521 0.101933 0.572946 -3.020363
2011-12-12 16:10:54 51°14.071 2°55.459 18.7605 0.101933 0.573008 -3.020363
2011-12-12 16:11:53 51°13.953 2°55.542 18.766 0.101933 0.573061 -3.020363
2011-12-12 16:12:53 51°13.836 2°55.626 18.7648 0.101933 0.573102 -3.020363
2011-12-12 16:13:53 51°13.744 2°55.732 18.774 0.101933 0.573155 -3.020363
2011-12-12 16:14:56 51°13.69 2°55.846 18.7751 0.101933 0.573196 -3.020363
2011-12-12 16:15:56 51°13.655 2°55.94 18.7825 0.101933 0.573238 -3.020363
2011-12-12 16:16:56 51°13.639 2°56.011 18.7902 0.101933 0.57329 -3.020363